Etusivu
METAR-TAF:

METAR-TAF

Lentoasemat :

Dole, Ranska

Leveyspiiri: 47-02-34N, Pituuspiiri: 005-26-06E, korkeus merenpinnasta: 196 m

Tämänhetkinen sää

Tämä raportti tehtiin 17 minuuttia sitten, kello 05.30 UTC
Tuuli 4 kn idästä/koillisesta
Lämpötila 2°C
Kosteus 51%
Ilmanpaine 1032 hPa
Näkyvyys 10 km tai enemmän
ei pilviä alle 1500 m:ssä eikä cumulonimbus-pilviä

METAR: LFGJ 240530Z AUTO 07004KT CAVOK 02/M07 Q1032

Aika: 06:47 (05:47 UTC)

Sääennuste

Tämä raportti tehtiin 15 tuntia ja 47 minuuttia sitten, kello 14.00 UTC
Ennuste voimassa 23. päivästä klo 15 UTC - 23. päivään klo 24 UTC
Tuuli 15 kn koillisesta
Näkyvyys 10 km tai enemmän
ei pilviä alle 1500 m:ssä eikä cumulonimbus-pilviä

TAF: LFGJ 231400Z 2315/2324 04015KT CAVOK

Säähavainnot ja -ennusteet yli 4000 lentoasemalta (METAR- ja TAF-raportit).

Käytössä olevat sääasemat on merkitty karttaan keltaisilla ja punaisilla pisteillä.

Aseta hiiri pisteen päälle nähdäksesi sääaseman nimen.

Klikkaa sitten nähdäksesi säähavainnot ja -ennusteet.

Kartan vaihtaminen: klikkaa mustalla rastilla varustettuja vihreitä pisteitä, niin voit zoomata sisään; viivalla varustettua vihreää pistettä, niin voit zoomata ulos tai vihreitä nuolia, niin pääset viereisille kartoille.


METAR-TAF: